Time;durP1;ratioP1;P1;durP2;ratioP2;P2;SDS_P1;SDS_P2;PMS_P1;PMS_P2;Temp;Humidity;BMP_temperature;BMP_pressure;BME280_temperature;BME280_humidity;BME280_pressure;Samples;Min_cycle;Max_cycle;Signal;HPM_P1;HPM_P2
2022/04/07 08:00:48;;;;;;;35.95;26.25;;;;;;;;;;6164358;23;21032;-85
2022/04/07 09:00:02;;;;;;;42.65;31.35;;;;;;;;;;6186197;23;20005;-92
2022/04/07 09:02:28;;;;;;;39.67;29.17;;;;;;;;;;6187702;23;20151;-93
2022/04/07 09:05:00;;;;;;;42.40;29.35;;;;;;;;;;6191581;23;20009;-91
2022/04/07 09:07:33;;;;;;;40.80;28.92;;;;;;;;;;6190535;23;20009;-91
2022/04/07 09:10:00;;;;;;;40.10;30.05;;;;;;;;;;6191003;23;20028;-95
2022/04/07 09:12:26;;;;;;;41.75;29.55;;;;;;;;;;6192987;23;20012;-96
2022/04/07 09:14:59;;;;;;;41.42;29.15;;;;;;;;;;6188874;23;20006;-94
2022/04/07 09:17:26;;;;;;;42.47;29.58;;;;;;;;;;6189706;23;20013;-95
2022/04/07 09:19:52;;;;;;;37.65;27.30;;;;;;;;;;6187937;23;20088;-93
2022/04/07 09:22:28;;;;;;;36.35;26.77;;;;;;;;;;6193294;23;20005;-89
2022/04/07 09:24:53;;;;;;;39.67;28.95;;;;;;;;;;6191775;23;20102;-92
2022/04/07 09:27:19;;;;;;;38.03;27.63;;;;;;;;;;6169744;23;20013;-90
2022/04/07 09:29:47;;;;;;;40.53;27.13;;;;;;;;;;6189182;23;20009;-91
2022/04/07 09:32:45;;;;;;;37.70;27.75;;;;;;;;;;6188472;23;20084;-91
2022/04/07 09:35:12;;;;;;;40.28;28.67;;;;;;;;;;6186317;23;20009;-88
2022/04/07 09:37:39;;;;;;;39.33;28.35;;;;;;;;;;6187974;23;20013;-91
2022/04/07 09:40:13;;;;;;;46.05;29.58;;;;;;;;;;6187557;23;20424;-90
2022/04/07 09:42:42;;;;;;;40.22;29.35;;;;;;;;;;6185918;23;20024;-89
2022/04/07 09:45:12;;;;;;;41.70;28.53;;;;;;;;;;6185826;23;20013;-89
2022/04/07 09:47:41;;;;;;;39.40;27.60;;;;;;;;;;6186020;23;20670;-88
2022/04/07 09:50:10;;;;;;;42.95;27.85;;;;;;;;;;6186923;23;20001;-90
2022/04/07 09:52:40;;;;;;;41.65;26.75;;;;;;;;;;6186172;23;20063;-91
2022/04/07 09:55:08;;;;;;;40.90;27.45;;;;;;;;;;6186036;23;20387;-89
2022/04/07 09:57:34;;;;;;;35.27;25.00;;;;;;;;;;6185901;23;20043;-91
2022/04/07 10:00:05;;;;;;;38.95;25.73;;;;;;;;;;6186300;23;20024;-93
2022/04/07 10:02:31;;;;;;;32.70;23.65;;;;;;;;;;6188492;23;20012;-93
2022/04/07 10:04:57;;;;;;;36.30;27.25;;;;;;;;;;6185879;23;20016;-92
2022/04/07 10:07:25;;;;;;;35.28;26.58;;;;;;;;;;6186766;23;20005;-94
2022/04/07 10:09:51;;;;;;;36.38;26.33;;;;;;;;;;6188403;23;20060;-94
2022/04/07 10:12:25;;;;;;;37.83;27.48;;;;;;;;;;6192053;23;20001;-94
2022/04/07 10:14:53;;;;;;;37.85;28.70;;;;;;;;;;6188669;23;20005;-96
2022/04/07 10:17:19;;;;;;;39.95;29.15;;;;;;;;;;6187834;23;20005;-94
2022/04/07 10:20:16;;;;;;;35.55;26.75;;;;;;;;;;6191726;23;20024;-94
2022/04/07 10:22:50;;;;;;;42.17;27.73;;;;;;;;;;6175884;23;20041;-95
2022/04/07 10:25:17;;;;;;;40.85;27.35;;;;;;;;;;6186195;23;20001;-93
2022/04/07 10:27:52;;;;;;;36.55;26.35;;;;;;;;;;6186025;23;20016;-92
2022/04/07 10:30:18;;;;;;;35.58;26.65;;;;;;;;;;6185368;23;20009;-90
2022/04/07 10:32:45;;;;;;;41.70;28.17;;;;;;;;;;6187283;23;20001;-92
2022/04/07 10:35:29;;;;;;;39.28;28.42;;;;;;;;;;6199056;23;20080;-94
2022/04/07 10:37:55;;;;;;;38.17;27.35;;;;;;;;;;6194231;23;20005;-94
2022/04/07 10:40:44;;;;;;;36.63;25.85;;;;;;;;;;6191064;23;20036;-93
2022/04/07 10:43:18;;;;;;;35.53;25.55;;;;;;;;;;6189692;23;20012;-92
2022/04/07 10:45:49;;;;;;;35.35;26.75;;;;;;;;;;6187698;23;20425;-95
2022/04/07 10:48:34;;;;;;;37.90;26.38;;;;;;;;;;6190526;23;20013;-94
2022/04/07 10:51:04;;;;;;;40.10;28.08;;;;;;;;;;6196737;23;20008;-92
2022/04/07 10:53:34;;;;;;;39.15;29.27;;;;;;;;;;6203544;23;20005;-94
2022/04/07 10:57:10;;;;;;;34.15;26.40;;;;;;;;;;6214254;23;20016;-96
2022/04/07 10:59:36;;;;;;;43.58;30.45;;;;;;;;;;6107472;23;20024;-90
2022/04/07 11:02:03;;;;;;;36.05;28.23;;;;;;;;;;6176285;23;20028;-96
2022/04/07 11:04:29;;;;;;;37.03;27.17;;;;;;;;;;6191205;23;20000;-89
2022/04/07 11:07:19;;;;;;;33.35;25.85;;;;;;;;;;6218898;23;20008;-89
2022/04/07 11:10:03;;;;;;;38.70;27.33;;;;;;;;;;6193046;23;20331;-96
2022/04/07 11:13:00;;;;;;;38.25;28.42;;;;;;;;;;6191382;23;20004;-95
2022/04/07 11:15:59;;;;;;;36.38;26.45;;;;;;;;;;6200076;23;20139;-93
2022/04/07 11:18:44;;;;;;;33.78;26.40;;;;;;;;;;6084446;23;20015;-96
2022/04/07 11:21:21;;;;;;;34.85;27.17;;;;;;;;;;6080034;23;20007;-94
2022/04/07 11:23:57;;;;;;;33.30;25.85;;;;;;;;;;6077761;23;20014;-94
2022/04/07 11:27:11;;;;;;;34.05;26.83;;;;;;;;;;6207012;23;20036;-93
2022/04/07 11:30:02;;;;;;;33.00;24.67;;;;;;;;;;6212242;23;20005;-92
2022/04/07 11:32:38;;;;;;;34.95;25.95;;;;;;;;;;6219233;23;20008;-87
2022/04/07 11:35:14;;;;;;;33.20;25.98;;;;;;;;;;6191348;23;20008;-94
2022/04/07 11:37:43;;;;;;;32.50;26.80;;;;;;;;;;6192133;23;20016;-93
2022/04/07 11:40:10;;;;;;;34.42;26.30;;;;;;;;;;6192168;23;20001;-90
2022/04/07 11:42:37;;;;;;;32.55;26.52;;;;;;;;;;6194490;23;20008;-96
2022/04/07 11:45:03;;;;;;;32.88;25.80;;;;;;;;;;6194235;23;20008;-94
2022/04/07 16:03:15;;;;;;;22.88;13.77;;;;;;;;;;6064121;23;20094;-85
2022/04/07 16:05:40;;;;;;;19.50;13.38;;;;;;;;;;6092872;23;20435;-85
2022/04/07 16:08:06;;;;;;;20.00;13.35;;;;;;;;;;6070280;23;20363;-86
2022/04/07 16:10:31;;;;;;;18.88;13.18;;;;;;;;;;6068625;23;20010;-85
2022/04/07 16:12:57;;;;;;;21.65;11.90;;;;;;;;;;6068537;23;20033;-86
2022/04/07 16:15:22;;;;;;;18.38;12.05;;;;;;;;;;6092671;23;20007;-86
2022/04/07 16:17:48;;;;;;;17.52;12.73;;;;;;;;;;6070262;23;20082;-85
2022/04/07 16:20:13;;;;;;;18.13;11.55;;;;;;;;;;6069981;23;20007;-85
2022/04/07 16:22:39;;;;;;;15.43;10.90;;;;;;;;;;6070147;23;20006;-84
2022/04/07 16:25:05;;;;;;;17.23;11.43;;;;;;;;;;6070086;23;19999;-88
2022/04/07 16:27:31;;;;;;;17.67;12.20;;;;;;;;;;6069895;23;20011;-87
2022/04/07 16:29:56;;;;;;;16.40;11.43;;;;;;;;;;6092168;23;20299;-87
2022/04/07 16:32:22;;;;;;;19.85;12.80;;;;;;;;;;6071103;23;20007;-89
2022/04/07 16:34:47;;;;;;;17.48;10.73;;;;;;;;;;6072058;23;20046;-90
2022/04/07 16:37:13;;;;;;;18.13;11.50;;;;;;;;;;6093891;23;20042;-86
2022/04/07 16:39:42;;;;;;;18.42;11.63;;;;;;;;;;6070576;23;20338;-87
2022/04/07 16:42:08;;;;;;;18.10;11.40;;;;;;;;;;6093198;23;20068;-86
2022/04/07 16:44:34;;;;;;;14.07;10.40;;;;;;;;;;6070252;23;20013;-89
2022/04/07 16:46:59;;;;;;;16.70;10.80;;;;;;;;;;6070282;23;20038;-91
2022/04/07 16:49:25;;;;;;;18.25;12.57;;;;;;;;;;6069945;23;20015;-89
2022/04/07 16:51:50;;;;;;;17.55;11.25;;;;;;;;;;6069961;23;20034;-88
2022/04/07 16:54:16;;;;;;;16.00;11.45;;;;;;;;;;6069937;23;20014;-88
2022/04/07 16:56:41;;;;;;;19.13;12.43;;;;;;;;;;6071511;23;20031;-88
2022/04/07 16:59:10;;;;;;;16.25;11.93;;;;;;;;;;6070118;23;20085;-88
2022/04/07 17:01:36;;;;;;;16.17;11.65;;;;;;;;;;6070472;23;20003;-88
2022/04/07 17:04:03;;;;;;;18.42;12.82;;;;;;;;;;6073418;23;20454;-91
2022/04/07 17:06:28;;;;;;;24.85;14.07;;;;;;;;;;6069569;23;20070;-90
2022/04/07 17:08:53;;;;;;;18.33;12.13;;;;;;;;;;6070763;23;20437;-89
2022/04/07 17:11:21;;;;;;;16.70;11.68;;;;;;;;;;6093646;23;20010;-90
2022/04/07 17:13:47;;;;;;;19.83;12.68;;;;;;;;;;6094098;23;20018;-91
2022/04/07 17:16:13;;;;;;;15.90;11.45;;;;;;;;;;6094237;23;20007;-92
2022/04/07 17:18:39;;;;;;;18.83;12.35;;;;;;;;;;6093120;23;20011;-91
2022/04/07 17:21:07;;;;;;;19.20;13.23;;;;;;;;;;6093845;23;20059;-88
2022/04/07 17:23:32;;;;;;;20.42;12.05;;;;;;;;;;6095401;23;20074;-91
2022/04/07 17:25:59;;;;;;;17.58;11.32;;;;;;;;;;6072558;23;20010;-92
2022/04/07 17:28:26;;;;;;;14.55;11.10;;;;;;;;;;6070258;23;20014;-91
2022/04/07 17:30:52;;;;;;;18.30;11.82;;;;;;;;;;6094331;23;20017;-94
2022/04/07 17:33:25;;;;;;;16.40;10.50;;;;;;;;;;6095327;23;20085;-95
2022/04/07 17:35:53;;;;;;;19.33;11.40;;;;;;;;;;6082302;23;20003;-92
2022/04/07 17:38:36;;;;;;;17.17;11.27;;;;;;;;;;6112811;23;20018;-96
2022/04/07 17:41:02;;;;;;;18.65;10.93;;;;;;;;;;6131425;23;20014;-95
2022/04/07 17:43:27;;;;;;;16.23;11.18;;;;;;;;;;6129992;23;20032;-94
2022/04/07 17:45:54;;;;;;;19.30;10.43;;;;;;;;;;6131113;23;20033;-95
2022/04/07 17:48:20;;;;;;;15.27;10.50;;;;;;;;;;6132353;23;20014;-93
2022/04/07 17:50:45;;;;;;;20.70;10.55;;;;;;;;;;6129692;23;20005;-92
2022/04/07 17:53:11;;;;;;;20.08;9.93;;;;;;;;;;6129437;23;20013;-93
2022/04/07 17:55:36;;;;;;;16.77;10.20;;;;;;;;;;6127947;23;20133;-92
2022/04/07 17:58:02;;;;;;;15.80;10.07;;;;;;;;;;6131155;23;20006;-89
2022/04/07 18:00:27;;;;;;;16.15;10.77;;;;;;;;;;6129379;23;20493;-92
2022/04/07 18:02:53;;;;;;;16.58;10.52;;;;;;;;;;6127858;23;20032;-91
2022/04/07 18:05:18;;;;;;;17.52;10.63;;;;;;;;;;6152585;23;20340;-90
2022/04/07 18:07:44;;;;;;;16.55;11.00;;;;;;;;;;6129467;23;20003;-91
2022/04/07 18:10:10;;;;;;;15.60;10.05;;;;;;;;;;6127440;23;20010;-89
2022/04/07 18:12:37;;;;;;;14.75;10.18;;;;;;;;;;6152027;23;20089;-90
2022/04/07 18:15:07;;;;;;;17.33;10.52;;;;;;;;;;6128601;23;20426;-90
2022/04/07 18:17:33;;;;;;;15.43;9.95;;;;;;;;;;6128340;23;20002;-89
2022/04/07 18:19:59;;;;;;;13.82;9.15;;;;;;;;;;6151748;23;20483;-88
2022/04/07 18:22:25;;;;;;;16.10;10.73;;;;;;;;;;6134478;23;20090;-86
2022/04/07 18:24:50;;;;;;;12.50;8.35;;;;;;;;;;6137650;23;20005;-89
2022/04/07 18:27:20;;;;;;;13.70;8.52;;;;;;;;;;6136021;23;20299;-87
2022/04/07 18:29:46;;;;;;;17.20;8.98;;;;;;;;;;6135759;23;20059;-88
2022/04/07 18:32:11;;;;;;;13.15;8.43;;;;;;;;;;6137610;23;20002;-88
2022/04/07 18:34:37;;;;;;;14.45;7.55;;;;;;;;;;6135786;23;20485;-88
2022/04/07 18:37:02;;;;;;;14.88;8.95;;;;;;;;;;6136389;23;20038;-87
2022/04/07 18:39:30;;;;;;;15.00;10.32;;;;;;;;;;6161440;23;20068;-88
2022/04/07 18:41:56;;;;;;;11.43;8.50;;;;;;;;;;6133712;23;20074;-88
2022/04/07 18:44:21;;;;;;;13.27;8.30;;;;;;;;;;6126914;23;20410;-88
2022/04/07 18:46:46;;;;;;;13.93;9.65;;;;;;;;;;6151316;23;20357;-88
2022/04/07 18:49:12;;;;;;;10.63;7.63;;;;;;;;;;6126770;23;20422;-88
2022/04/07 18:51:37;;;;;;;13.88;7.40;;;;;;;;;;6125849;23;20206;-88
2022/04/07 18:54:04;;;;;;;13.77;9.38;;;;;;;;;;6126485;23;20009;-87
2022/04/07 18:56:30;;;;;;;12.45;7.88;;;;;;;;;;6126735;23;20002;-87
2022/04/07 18:58:55;;;;;;;10.15;6.47;;;;;;;;;;6128178;23;20013;-89
2022/04/07 19:01:21;;;;;;;10.43;6.15;;;;;;;;;;6128230;23;20009;-89
2022/04/07 19:03:47;;;;;;;10.68;7.18;;;;;;;;;;6151081;23;20437;-88
2022/04/07 19:06:13;;;;;;;12.07;7.53;;;;;;;;;;6126383;23;20056;-89
2022/04/07 19:08:38;;;;;;;12.02;7.85;;;;;;;;;;6127921;23;20025;-88
2022/04/07 19:11:04;;;;;;;14.13;6.80;;;;;;;;;;6128067;23;20009;-87
2022/04/07 19:13:29;;;;;;;10.80;7.45;;;;;;;;;;6126325;23;20006;-88
2022/04/07 19:15:56;;;;;;;10.85;6.88;;;;;;;;;;6126137;23;20014;-89
2022/04/07 19:18:22;;;;;;;11.02;5.85;;;;;;;;;;6150659;23;20061;-88
2022/04/07 19:20:47;;;;;;;7.32;5.47;;;;;;;;;;6126045;23;20493;-88
2022/04/07 19:23:13;;;;;;;8.48;5.68;;;;;;;;;;6126372;23;20006;-88
2022/04/07 19:25:38;;;;;;;6.35;5.10;;;;;;;;;;6125888;23;20006;-88
2022/04/07 19:28:04;;;;;;;9.52;6.80;;;;;;;;;;6126204;23;20057;-88
2022/04/07 19:30:30;;;;;;;10.98;6.35;;;;;;;;;;6125429;23;19998;-88
2022/04/07 19:32:55;;;;;;;9.90;6.35;;;;;;;;;;6125687;23;20009;-89
2022/04/07 19:35:20;;;;;;;11.90;6.80;;;;;;;;;;6150087;23;20009;-89
2022/04/07 19:37:46;;;;;;;14.77;7.38;;;;;;;;;;6150002;23;20041;-88
2022/04/07 19:40:12;;;;;;;14.93;7.35;;;;;;;;;;6154939;23;20013;-89
2022/04/07 19:42:37;;;;;;;11.65;6.93;;;;;;;;;;6130360;23;20084;-89
2022/04/07 19:45:03;;;;;;;10.20;6.30;;;;;;;;;;6130904;23;20005;-89
2022/04/07 19:47:28;;;;;;;10.45;6.20;;;;;;;;;;6156446;23;20136;-88
2022/04/07 19:49:54;;;;;;;8.02;5.30;;;;;;;;;;6130039;23;20009;-88
2022/04/07 19:52:21;;;;;;;10.10;6.95;;;;;;;;;;6131527;23;20005;-90
2022/04/07 19:54:48;;;;;;;12.15;6.18;;;;;;;;;;6156033;23;20009;-92
2022/04/07 19:57:13;;;;;;;8.75;5.78;;;;;;;;;;6131337;23;20341;-93
2022/04/07 19:59:39;;;;;;;11.13;6.13;;;;;;;;;;6130921;23;20010;-89
2022/04/07 20:02:04;;;;;;;9.40;6.13;;;;;;;;;;6156860;23;20002;-90
2022/04/07 20:04:30;;;;;;;8.63;5.72;;;;;;;;;;6132034;23;20002;-92
2022/04/07 20:06:55;;;;;;;9.27;5.65;;;;;;;;;;6133243;23;20092;-90
2022/04/07 20:09:22;;;;;;;9.88;6.97;;;;;;;;;;6159209;23;20032;-91
2022/04/07 20:11:52;;;;;;;11.98;6.40;;;;;;;;;;6158915;23;20060;-91
2022/04/07 20:14:19;;;;;;;8.52;6.03;;;;;;;;;;6132916;23;20005;-91
2022/04/07 20:16:44;;;;;;;8.90;5.60;;;;;;;;;;6132605;23;20369;-90
2022/04/07 20:19:11;;;;;;;9.10;6.28;;;;;;;;;;6132572;23;20140;-91
2022/04/07 20:21:37;;;;;;;7.85;5.57;;;;;;;;;;6133086;23;20006;-91
2022/04/07 20:24:04;;;;;;;11.95;7.15;;;;;;;;;;6132854;23;20009;-90
2022/04/07 20:26:30;;;;;;;10.10;7.13;;;;;;;;;;6158423;23;20053;-90
2022/04/07 20:28:56;;;;;;;7.65;5.22;;;;;;;;;;6132567;23;20060;-90
2022/04/07 20:31:22;;;;;;;13.25;7.50;;;;;;;;;;6158481;23;20072;-90
2022/04/07 20:33:48;;;;;;;12.25;7.38;;;;;;;;;;6132261;23;20036;-90
2022/04/07 20:36:14;;;;;;;13.43;8.38;;;;;;;;;;6132663;23;20061;-90
2022/04/07 20:38:39;;;;;;;11.05;6.90;;;;;;;;;;6127019;23;20100;-90
2022/04/07 20:41:05;;;;;;;10.18;6.97;;;;;;;;;;6127664;23;20013;-90
2022/04/07 20:43:30;;;;;;;11.80;7.10;;;;;;;;;;6127320;23;20060;-91
2022/04/07 20:45:55;;;;;;;12.43;6.93;;;;;;;;;;6127677;23;20456;-91
2022/04/07 20:48:21;;;;;;;9.10;6.50;;;;;;;;;;6127476;23;20014;-90
2022/04/07 20:50:46;;;;;;;10.95;6.05;;;;;;;;;;6127293;23;20006;-92
2022/04/07 20:53:12;;;;;;;8.80;5.80;;;;;;;;;;6127660;23;20046;-89
2022/04/07 20:55:37;;;;;;;8.02;5.68;;;;;;;;;;6127436;23;20005;-90
2022/04/07 20:58:02;;;;;;;13.85;7.55;;;;;;;;;;6127320;23;20013;-90
2022/04/07 21:00:28;;;;;;;16.70;8.88;;;;;;;;;;6127334;23;20045;-90
2022/04/07 21:02:53;;;;;;;13.75;8.35;;;;;;;;;;6129188;23;20001;-90
2022/04/07 21:05:20;;;;;;;16.55;9.05;;;;;;;;;;6127603;23;20013;-91
2022/04/07 21:07:46;;;;;;;13.23;8.45;;;;;;;;;;6127732;23;20040;-91
2022/04/07 21:10:11;;;;;;;13.88;8.25;;;;;;;;;;6128918;23;20002;-90
2022/04/07 21:12:38;;;;;;;14.23;9.48;;;;;;;;;;6127291;23;20143;-89
2022/04/07 21:15:04;;;;;;;14.27;9.57;;;;;;;;;;6126794;23;20006;-90
2022/04/07 21:17:29;;;;;;;15.35;10.13;;;;;;;;;;6126853;23;20006;-89
2022/04/07 21:19:54;;;;;;;15.52;9.50;;;;;;;;;;6151346;23;20014;-90
2022/04/07 21:22:20;;;;;;;14.88;8.90;;;;;;;;;;6127047;23;20006;-91
2022/04/07 21:24:46;;;;;;;15.73;8.40;;;;;;;;;;6127262;23;20014;-91
2022/04/07 21:27:11;;;;;;;13.68;8.50;;;;;;;;;;6127203;23;20006;-91
2022/04/07 21:29:36;;;;;;;14.45;9.45;;;;;;;;;;6127322;23;20010;-91
2022/04/07 21:32:02;;;;;;;18.40;9.85;;;;;;;;;;6127383;23;20088;-91
2022/04/07 21:34:28;;;;;;;17.00;10.00;;;;;;;;;;6127089;23;20004;-90
2022/04/07 21:36:53;;;;;;;17.10;9.50;;;;;;;;;;6127052;23;20002;-91
2022/04/07 21:39:19;;;;;;;15.25;9.25;;;;;;;;;;6126811;23;20032;-91
2022/04/07 21:41:44;;;;;;;16.88;9.57;;;;;;;;;;6129403;23;20009;-90
2022/04/07 21:44:10;;;;;;;16.33;10.00;;;;;;;;;;6152223;23;20009;-91
2022/04/07 21:46:36;;;;;;;14.60;8.93;;;;;;;;;;6127255;23;20009;-91
2022/04/07 21:49:03;;;;;;;14.10;8.48;;;;;;;;;;6128735;23;20472;-90
2022/04/07 21:51:28;;;;;;;13.80;8.48;;;;;;;;;;6127140;23;20009;-90
2022/04/07 21:53:54;;;;;;;11.48;8.13;;;;;;;;;;6151297;23;20002;-89
2022/04/07 21:56:20;;;;;;;13.23;8.45;;;;;;;;;;6127085;23;20437;-90
2022/04/07 21:58:45;;;;;;;14.18;9.00;;;;;;;;;;6128369;23;20093;-90
2022/04/07 22:01:11;;;;;;;18.00;10.32;;;;;;;;;;6127054;23;20426;-90
2022/04/07 22:03:36;;;;;;;16.05;10.02;;;;;;;;;;6127751;23;20006;-90
2022/04/07 22:06:02;;;;;;;17.60;11.00;;;;;;;;;;6128195;23;20013;-91
2022/04/07 22:08:27;;;;;;;18.17;10.23;;;;;;;;;;6128563;23;20020;-91
2022/04/07 22:10:53;;;;;;;17.65;10.50;;;;;;;;;;6128140;23;20033;-89
2022/04/07 22:13:18;;;;;;;16.48;10.07;;;;;;;;;;6129814;23;20014;-90
2022/04/07 22:15:44;;;;;;;18.08;10.13;;;;;;;;;;6130790;23;20006;-90
2022/04/07 22:18:09;;;;;;;17.33;10.27;;;;;;;;;;6127964;23;20006;-90
